sensor_id;sensor_type;location;lat;lon;timestamp;P1;durP1;ratioP1;P2;durP2;ratioP2
74375;SDS011;62812;55.188;61.302;2023-11-22T00:00:17;5.10;;;1.80;;
74375;SDS011;62812;55.188;61.302;2023-11-22T00:02:47;3.80;;;0.90;;
74375;SDS011;62812;55.188;61.302;2023-11-22T00:05:14;2.40;;;1.10;;
74375;SDS011;62812;55.188;61.302;2023-11-22T00:07:41;7.00;;;1.92;;
74375;SDS011;62812;55.188;61.302;2023-11-22T00:10:08;5.38;;;1.65;;
74375;SDS011;62812;55.188;61.302;2023-11-22T00:12:34;2.60;;;0.93;;
74375;SDS011;62812;55.188;61.302;2023-11-22T00:15:06;5.22;;;1.48;;
74375;SDS011;62812;55.188;61.302;2023-11-22T00:20:02;6.60;;;1.42;;
74375;SDS011;62812;55.188;61.302;2023-11-22T00:22:31;4.63;;;1.33;;
74375;SDS011;62812;55.188;61.302;2023-11-22T00:24:58;6.20;;;1.58;;
74375;SDS011;62812;55.188;61.302;2023-11-22T00:27:27;2.47;;;0.95;;
74375;SDS011;62812;55.188;61.302;2023-11-22T00:29:55;5.07;;;1.33;;
74375;SDS011;62812;55.188;61.302;2023-11-22T00:32:23;5.22;;;1.50;;
74375;SDS011;62812;55.188;61.302;2023-11-22T00:34:51;3.72;;;1.20;;
74375;SDS011;62812;55.188;61.302;2023-11-22T00:37:18;4.40;;;1.70;;
74375;SDS011;62812;55.188;61.302;2023-11-22T00:39:45;5.90;;;1.75;;
74375;SDS011;62812;55.188;61.302;2023-11-22T00:42:12;6.43;;;1.60;;
74375;SDS011;62812;55.188;61.302;2023-11-22T00:44:39;3.70;;;1.50;;
74375;SDS011;62812;55.188;61.302;2023-11-22T00:47:06;6.55;;;1.70;;
74375;SDS011;62812;55.188;61.302;2023-11-22T00:49:34;3.50;;;1.48;;
74375;SDS011;62812;55.188;61.302;2023-11-22T00:52:01;7.13;;;1.88;;
74375;SDS011;62812;55.188;61.302;2023-11-22T00:54:28;6.35;;;2.20;;
74375;SDS011;62812;55.188;61.302;2023-11-22T00:56:55;11.63;;;1.65;;
74375;SDS011;62812;55.188;61.302;2023-11-22T00:59:22;13.60;;;2.45;;
74375;SDS011;62812;55.188;61.302;2023-11-22T01:01:49;6.35;;;1.60;;
74375;SDS011;62812;55.188;61.302;2023-11-22T01:04:16;8.40;;;2.20;;
74375;SDS011;62812;55.188;61.302;2023-11-22T01:06:44;4.95;;;1.40;;
74375;SDS011;62812;55.188;61.302;2023-11-22T01:09:11;6.47;;;2.05;;
74375;SDS011;62812;55.188;61.302;2023-11-22T01:11:39;6.97;;;2.03;;
74375;SDS011;62812;55.188;61.302;2023-11-22T01:14:06;6.28;;;1.63;;
74375;SDS011;62812;55.188;61.302;2023-11-22T01:16:33;9.85;;;1.50;;
74375;SDS011;62812;55.188;61.302;2023-11-22T01:19:00;8.30;;;1.92;;
74375;SDS011;62812;55.188;61.302;2023-11-22T01:21:27;5.60;;;1.90;;
74375;SDS011;62812;55.188;61.302;2023-11-22T01:23:55;7.95;;;1.67;;
74375;SDS011;62812;55.188;61.302;2023-11-22T01:26:22;9.90;;;3.13;;
74375;SDS011;62812;55.188;61.302;2023-11-22T01:28:49;6.68;;;2.08;;
74375;SDS011;62812;55.188;61.302;2023-11-22T01:31:18;7.03;;;1.67;;
74375;SDS011;62812;55.188;61.302;2023-11-22T01:33:52;8.05;;;1.75;;
74375;SDS011;62812;55.188;61.302;2023-11-22T01:36:19;4.85;;;1.70;;
74375;SDS011;62812;55.188;61.302;2023-11-22T01:38:46;7.85;;;2.30;;
74375;SDS011;62812;55.188;61.302;2023-11-22T01:41:14;6.10;;;1.20;;
74375;SDS011;62812;55.188;61.302;2023-11-22T01:43:42;5.85;;;1.60;;
74375;SDS011;62812;55.188;61.302;2023-11-22T01:46:14;4.47;;;1.58;;
74375;SDS011;62812;55.188;61.302;2023-11-22T01:48:52;4.22;;;1.35;;
74375;SDS011;62812;55.188;61.302;2023-11-22T01:51:20;3.97;;;1.45;;
74375;SDS011;62812;55.188;61.302;2023-11-22T01:53:46;5.15;;;1.70;;
74375;SDS011;62812;55.188;61.302;2023-11-22T01:56:16;6.40;;;1.60;;
74375;SDS011;62812;55.188;61.302;2023-11-22T01:58:43;4.70;;;1.77;;
74375;SDS011;62812;55.188;61.302;2023-11-22T02:01:10;6.00;;;1.92;;
74375;SDS011;62812;55.188;61.302;2023-11-22T02:03:38;7.03;;;1.38;;
74375;SDS011;62812;55.188;61.302;2023-11-22T02:06:05;5.85;;;1.65;;
74375;SDS011;62812;55.188;61.302;2023-11-22T02:08:32;5.38;;;1.65;;
74375;SDS011;62812;55.188;61.302;2023-11-22T02:10:59;7.70;;;2.70;;
74375;SDS011;62812;55.188;61.302;2023-11-22T02:13:30;12.55;;;1.88;;
74375;SDS011;62812;55.188;61.302;2023-11-22T02:15:57;5.18;;;1.80;;
74375;SDS011;62812;55.188;61.302;2023-11-22T02:18:27;7.28;;;1.92;;
74375;SDS011;62812;55.188;61.302;2023-11-22T02:20:56;8.55;;;1.95;;
74375;SDS011;62812;55.188;61.302;2023-11-22T02:23:26;6.43;;;1.70;;
74375;SDS011;62812;55.188;61.302;2023-11-22T02:25:54;5.32;;;1.60;;
74375;SDS011;62812;55.188;61.302;2023-11-22T02:28:21;5.07;;;1.13;;
74375;SDS011;62812;55.188;61.302;2023-11-22T02:30:48;5.28;;;1.67;;
74375;SDS011;62812;55.188;61.302;2023-11-22T02:33:14;2.63;;;1.00;;
74375;SDS011;62812;55.188;61.302;2023-11-22T02:35:41;5.28;;;1.17;;
74375;SDS011;62812;55.188;61.302;2023-11-22T02:38:09;15.55;;;1.73;;
74375;SDS011;62812;55.188;61.302;2023-11-22T02:40:37;6.43;;;1.30;;
74375;SDS011;62812;55.188;61.302;2023-11-22T02:43:04;8.77;;;1.75;;
74375;SDS011;62812;55.188;61.302;2023-11-22T02:45:34;9.98;;;2.25;;
74375;SDS011;62812;55.188;61.302;2023-11-22T02:48:02;4.72;;;1.83;;
74375;SDS011;62812;55.188;61.302;2023-11-22T02:50:29;3.58;;;1.30;;
74375;SDS011;62812;55.188;61.302;2023-11-22T02:53:00;8.77;;;1.92;;
74375;SDS011;62812;55.188;61.302;2023-11-22T02:55:28;6.22;;;1.63;;
74375;SDS011;62812;55.188;61.302;2023-11-22T03:00:28;10.05;;;1.63;;
74375;SDS011;62812;55.188;61.302;2023-11-22T03:02:55;5.68;;;1.05;;
74375;SDS011;62812;55.188;61.302;2023-11-22T03:05:22;6.68;;;1.52;;
74375;SDS011;62812;55.188;61.302;2023-11-22T03:07:51;11.02;;;2.38;;
74375;SDS011;62812;55.188;61.302;2023-11-22T03:10:18;5.32;;;1.33;;
74375;SDS011;62812;55.188;61.302;2023-11-22T03:12:45;9.23;;;2.00;;
74375;SDS011;62812;55.188;61.302;2023-11-22T03:15:15;9.82;;;1.50;;
74375;SDS011;62812;55.188;61.302;2023-11-22T03:17:42;10.93;;;1.80;;
74375;SDS011;62812;55.188;61.302;2023-11-22T03:20:10;6.97;;;1.60;;
74375;SDS011;62812;55.188;61.302;2023-11-22T03:22:42;7.93;;;1.60;;
74375;SDS011;62812;55.188;61.302;2023-11-22T03:25:12;11.10;;;3.10;;
74375;SDS011;62812;55.188;61.302;2023-11-22T03:27:41;11.57;;;2.25;;
74375;SDS011;62812;55.188;61.302;2023-11-22T03:30:08;9.50;;;2.13;;
74375;SDS011;62812;55.188;61.302;2023-11-22T03:32:39;7.05;;;2.17;;
74375;SDS011;62812;55.188;61.302;2023-11-22T03:35:06;7.35;;;1.80;;
74375;SDS011;62812;55.188;61.302;2023-11-22T03:37:33;14.82;;;2.63;;
74375;SDS011;62812;55.188;61.302;2023-11-22T03:40:00;13.38;;;2.50;;
74375;SDS011;62812;55.188;61.302;2023-11-22T03:42:28;12.32;;;3.10;;
74375;SDS011;62812;55.188;61.302;2023-11-22T03:44:56;13.30;;;3.22;;
74375;SDS011;62812;55.188;61.302;2023-11-22T03:47:25;11.57;;;2.63;;
74375;SDS011;62812;55.188;61.302;2023-11-22T03:49:53;13.50;;;2.90;;
74375;SDS011;62812;55.188;61.302;2023-11-22T03:52:20;6.68;;;1.58;;
74375;SDS011;62812;55.188;61.302;2023-11-22T03:54:47;10.00;;;2.97;;
74375;SDS011;62812;55.188;61.302;2023-11-22T03:57:14;12.60;;;2.35;;
74375;SDS011;62812;55.188;61.302;2023-11-22T03:59:42;7.68;;;2.25;;
74375;SDS011;62812;55.188;61.302;2023-11-22T04:02:09;8.10;;;2.28;;
74375;SDS011;62812;55.188;61.302;2023-11-22T04:04:36;7.15;;;2.03;;
74375;SDS011;62812;55.188;61.302;2023-11-22T04:07:14;7.88;;;1.77;;
74375;SDS011;62812;55.188;61.302;2023-11-22T04:09:40;22.80;;;2.30;;
74375;SDS011;62812;55.188;61.302;2023-11-22T04:12:08;5.18;;;1.60;;
74375;SDS011;62812;55.188;61.302;2023-11-22T04:14:35;8.25;;;2.15;;
74375;SDS011;62812;55.188;61.302;2023-11-22T04:17:01;16.40;;;2.25;;
74375;SDS011;62812;55.188;61.302;2023-11-22T04:19:31;8.93;;;1.95;;
74375;SDS011;62812;55.188;61.302;2023-11-22T04:21:58;8.00;;;2.60;;
74375;SDS011;62812;55.188;61.302;2023-11-22T04:24:26;8.93;;;2.97;;
74375;SDS011;62812;55.188;61.302;2023-11-22T04:26:53;11.95;;;2.10;;
74375;SDS011;62812;55.188;61.302;2023-11-22T04:29:20;11.32;;;2.15;;
74375;SDS011;62812;55.188;61.302;2023-11-22T04:31:47;8.77;;;1.70;;
74375;SDS011;62812;55.188;61.302;2023-11-22T04:34:14;12.60;;;1.90;;
74375;SDS011;62812;55.188;61.302;2023-11-22T04:36:41;8.18;;;1.80;;
74375;SDS011;62812;55.188;61.302;2023-11-22T04:39:10;7.47;;;1.40;;
74375;SDS011;62812;55.188;61.302;2023-11-22T04:41:40;13.18;;;1.92;;
74375;SDS011;62812;55.188;61.302;2023-11-22T04:44:07;7.05;;;1.60;;
74375;SDS011;62812;55.188;61.302;2023-11-22T04:46:34;7.63;;;2.35;;
74375;SDS011;62812;55.188;61.302;2023-11-22T04:49:02;10.38;;;2.58;;
74375;SDS011;62812;55.188;61.302;2023-11-22T04:51:29;7.40;;;2.65;;
74375;SDS011;62812;55.188;61.302;2023-11-22T04:53:56;12.48;;;3.05;;
74375;SDS011;62812;55.188;61.302;2023-11-22T04:56:23;8.30;;;2.65;;
74375;SDS011;62812;55.188;61.302;2023-11-22T04:58:51;7.82;;;2.17;;
74375;SDS011;62812;55.188;61.302;2023-11-22T05:01:18;11.38;;;2.97;;
74375;SDS011;62812;55.188;61.302;2023-11-22T05:03:45;17.73;;;1.95;;
74375;SDS011;62812;55.188;61.302;2023-11-22T05:06:11;16.75;;;2.30;;
74375;SDS011;62812;55.188;61.302;2023-11-22T05:08:38;10.20;;;1.85;;
74375;SDS011;62812;55.188;61.302;2023-11-22T05:11:04;12.15;;;2.72;;
74375;SDS011;62812;55.188;61.302;2023-11-22T05:13:33;9.02;;;2.47;;
74375;SDS011;62812;55.188;61.302;2023-11-22T05:16:01;15.57;;;3.95;;
74375;SDS011;62812;55.188;61.302;2023-11-22T05:18:29;5.95;;;1.75;;
74375;SDS011;62812;55.188;61.302;2023-11-22T05:20:56;6.60;;;1.45;;
74375;SDS011;62812;55.188;61.302;2023-11-22T05:23:23;15.82;;;2.53;;
74375;SDS011;62812;55.188;61.302;2023-11-22T05:25:50;10.55;;;2.40;;
74375;SDS011;62812;55.188;61.302;2023-11-22T05:28:18;11.50;;;3.10;;
74375;SDS011;62812;55.188;61.302;2023-11-22T05:30:45;11.60;;;3.97;;
74375;SDS011;62812;55.188;61.302;2023-11-22T05:33:14;8.30;;;2.40;;
74375;SDS011;62812;55.188;61.302;2023-11-22T05:35:40;9.85;;;2.15;;
74375;SDS011;62812;55.188;61.302;2023-11-22T05:38:07;17.70;;;3.20;;
74375;SDS011;62812;55.188;61.302;2023-11-22T05:40:34;10.82;;;2.65;;
74375;SDS011;62812;55.188;61.302;2023-11-22T05:43:01;14.98;;;2.63;;
74375;SDS011;62812;55.188;61.302;2023-11-22T05:45:28;6.53;;;1.60;;
74375;SDS011;62812;55.188;61.302;2023-11-22T05:47:55;4.53;;;1.48;;
74375;SDS011;62812;55.188;61.302;2023-11-22T05:50:24;6.82;;;1.95;;
74375;SDS011;62812;55.188;61.302;2023-11-22T05:52:50;7.40;;;1.48;;
74375;SDS011;62812;55.188;61.302;2023-11-22T05:55:20;5.13;;;1.80;;
74375;SDS011;62812;55.188;61.302;2023-11-22T05:57:48;8.40;;;2.05;;
74375;SDS011;62812;55.188;61.302;2023-11-22T06:00:15;13.60;;;2.08;;
74375;SDS011;62812;55.188;61.302;2023-11-22T06:02:42;5.43;;;1.58;;
74375;SDS011;62812;55.188;61.302;2023-11-22T06:05:08;13.57;;;2.00;;
74375;SDS011;62812;55.188;61.302;2023-11-22T06:07:36;11.70;;;1.83;;
74375;SDS011;62812;55.188;61.302;2023-11-22T06:10:04;8.65;;;1.83;;
74375;SDS011;62812;55.188;61.302;2023-11-22T06:12:32;6.55;;;1.30;;
74375;SDS011;62812;55.188;61.302;2023-11-22T06:14:59;7.30;;;1.77;;
74375;SDS011;62812;55.188;61.302;2023-11-22T06:17:26;5.75;;;1.90;;
74375;SDS011;62812;55.188;61.302;2023-11-22T06:19:54;5.60;;;2.03;;
74375;SDS011;62812;55.188;61.302;2023-11-22T06:22:22;7.35;;;1.67;;
74375;SDS011;62812;55.188;61.302;2023-11-22T06:24:52;9.38;;;2.42;;
74375;SDS011;62812;55.188;61.302;2023-11-22T06:27:19;7.40;;;1.83;;
74375;SDS011;62812;55.188;61.302;2023-11-22T06:29:46;7.53;;;1.95;;
74375;SDS011;62812;55.188;61.302;2023-11-22T06:32:13;10.13;;;2.53;;
74375;SDS011;62812;55.188;61.302;2023-11-22T06:34:39;5.18;;;2.28;;
74375;SDS011;62812;55.188;61.302;2023-11-22T06:37:06;8.10;;;2.42;;
74375;SDS011;62812;55.188;61.302;2023-11-22T06:39:34;12.07;;;3.20;;
74375;SDS011;62812;55.188;61.302;2023-11-22T06:42:02;17.60;;;4.07;;
74375;SDS011;62812;55.188;61.302;2023-11-22T06:44:30;11.98;;;3.90;;
74375;SDS011;62812;55.188;61.302;2023-11-22T06:46:57;17.33;;;4.03;;
74375;SDS011;62812;55.188;61.302;2023-11-22T06:49:24;11.40;;;3.47;;
74375;SDS011;62812;55.188;61.302;2023-11-22T06:51:51;15.82;;;4.00;;
74375;SDS011;62812;55.188;61.302;2023-11-22T06:54:18;7.70;;;2.35;;
74375;SDS011;62812;55.188;61.302;2023-11-22T06:56:47;13.35;;;2.97;;
74375;SDS011;62812;55.188;61.302;2023-11-22T06:59:16;10.45;;;2.53;;
74375;SDS011;62812;55.188;61.302;2023-11-22T07:01:42;9.75;;;2.88;;
74375;SDS011;62812;55.188;61.302;2023-11-22T07:04:09;10.82;;;3.15;;
74375;SDS011;62812;55.188;61.302;2023-11-22T07:06:36;10.80;;;3.28;;
74375;SDS011;62812;55.188;61.302;2023-11-22T07:09:05;9.95;;;3.40;;
74375;SDS011;62812;55.188;61.302;2023-11-22T07:11:35;16.70;;;3.42;;
74375;SDS011;62812;55.188;61.302;2023-11-22T07:14:03;14.13;;;1.95;;
74375;SDS011;62812;55.188;61.302;2023-11-22T07:16:33;13.27;;;3.08;;
74375;SDS011;62812;55.188;61.302;2023-11-22T07:19:00;12.75;;;3.28;;
74375;SDS011;62812;55.188;61.302;2023-11-22T07:21:32;16.00;;;4.28;;
74375;SDS011;62812;55.188;61.302;2023-11-22T07:24:04;15.18;;;3.88;;
74375;SDS011;62812;55.188;61.302;2023-11-22T07:26:33;9.88;;;2.80;;
74375;SDS011;62812;55.188;61.302;2023-11-22T07:29:00;5.95;;;1.92;;
74375;SDS011;62812;55.188;61.302;2023-11-22T07:31:29;7.72;;;2.25;;
74375;SDS011;62812;55.188;61.302;2023-11-22T07:33:59;8.43;;;2.35;;
74375;SDS011;62812;55.188;61.302;2023-11-22T07:36:28;12.07;;;2.50;;
74375;SDS011;62812;55.188;61.302;2023-11-22T07:38:56;4.53;;;1.83;;
74375;SDS011;62812;55.188;61.302;2023-11-22T07:41:23;8.27;;;2.65;;
74375;SDS011;62812;55.188;61.302;2023-11-22T07:43:53;13.48;;;3.00;;
74375;SDS011;62812;55.188;61.302;2023-11-22T07:46:21;4.25;;;1.58;;
74375;SDS011;62812;55.188;61.302;2023-11-22T07:48:49;9.38;;;3.10;;
74375;SDS011;62812;55.188;61.302;2023-11-22T07:51:17;9.40;;;2.53;;
74375;SDS011;62812;55.188;61.302;2023-11-22T07:53:45;14.52;;;3.47;;
74375;SDS011;62812;55.188;61.302;2023-11-22T07:56:11;15.50;;;3.85;;
74375;SDS011;62812;55.188;61.302;2023-11-22T07:58:38;15.70;;;3.38;;
74375;SDS011;62812;55.188;61.302;2023-11-22T08:01:04;9.45;;;2.90;;
74375;SDS011;62812;55.188;61.302;2023-11-22T08:03:32;11.93;;;4.22;;
74375;SDS011;62812;55.188;61.302;2023-11-22T08:06:00;11.52;;;3.55;;
74375;SDS011;62812;55.188;61.302;2023-11-22T08:08:30;9.45;;;2.90;;
74375;SDS011;62812;55.188;61.302;2023-11-22T08:10:56;10.10;;;2.45;;
74375;SDS011;62812;55.188;61.302;2023-11-22T08:13:25;7.75;;;5.07;;
74375;SDS011;62812;55.188;61.302;2023-11-22T08:15:53;10.40;;;3.00;;
74375;SDS011;62812;55.188;61.302;2023-11-22T08:18:20;7.53;;;1.98;;
74375;SDS011;62812;55.188;61.302;2023-11-22T08:20:47;8.77;;;2.40;;
74375;SDS011;62812;55.188;61.302;2023-11-22T08:23:17;9.60;;;2.17;;
74375;SDS011;62812;55.188;61.302;2023-11-22T08:25:46;8.63;;;2.33;;
74375;SDS011;62812;55.188;61.302;2023-11-22T08:28:12;10.60;;;2.60;;
74375;SDS011;62812;55.188;61.302;2023-11-22T08:30:39;11.05;;;2.63;;
74375;SDS011;62812;55.188;61.302;2023-11-22T08:33:14;11.13;;;1.90;;
74375;SDS011;62812;55.188;61.302;2023-11-22T08:35:44;8.20;;;2.47;;
74375;SDS011;62812;55.188;61.302;2023-11-22T08:38:16;5.97;;;2.00;;
74375;SDS011;62812;55.188;61.302;2023-11-22T08:40:47;6.80;;;2.28;;
74375;SDS011;62812;55.188;61.302;2023-11-22T08:43:16;8.40;;;3.70;;
74375;SDS011;62812;55.188;61.302;2023-11-22T08:45:55;15.20;;;5.10;;
74375;SDS011;62812;55.188;61.302;2023-11-22T08:48:22;11.38;;;4.60;;
74375;SDS011;62812;55.188;61.302;2023-11-22T08:50:49;13.98;;;4.00;;
74375;SDS011;62812;55.188;61.302;2023-11-22T08:53:19;14.07;;;5.40;;
74375;SDS011;62812;55.188;61.302;2023-11-22T08:55:48;17.83;;;5.43;;
74375;SDS011;62812;55.188;61.302;2023-11-22T08:58:15;13.73;;;5.32;;
74375;SDS011;62812;55.188;61.302;2023-11-22T09:00:43;14.93;;;5.63;;
74375;SDS011;62812;55.188;61.302;2023-11-22T09:03:13;17.35;;;5.90;;
74375;SDS011;62812;55.188;61.302;2023-11-22T09:05:43;20.17;;;5.35;;
74375;SDS011;62812;55.188;61.302;2023-11-22T09:08:13;20.35;;;5.70;;
74375;SDS011;62812;55.188;61.302;2023-11-22T09:10:42;19.67;;;6.38;;
74375;SDS011;62812;55.188;61.302;2023-11-22T09:13:13;21.33;;;6.50;;
74375;SDS011;62812;55.188;61.302;2023-11-22T09:15:42;20.90;;;6.90;;
74375;SDS011;62812;55.188;61.302;2023-11-22T09:18:10;12.95;;;4.93;;
74375;SDS011;62812;55.188;61.302;2023-11-22T09:20:39;13.32;;;4.85;;
74375;SDS011;62812;55.188;61.302;2023-11-22T09:23:10;16.27;;;5.05;;
74375;SDS011;62812;55.188;61.302;2023-11-22T09:25:37;10.15;;;4.15;;
74375;SDS011;62812;55.188;61.302;2023-11-22T09:28:05;16.25;;;4.88;;
74375;SDS011;62812;55.188;61.302;2023-11-22T09:30:34;15.35;;;4.10;;
74375;SDS011;62812;55.188;61.302;2023-11-22T09:35:30;14.18;;;3.85;;
74375;SDS011;62812;55.188;61.302;2023-11-22T09:37:58;15.52;;;3.85;;
74375;SDS011;62812;55.188;61.302;2023-11-22T09:40:27;12.80;;;5.45;;
74375;SDS011;62812;55.188;61.302;2023-11-22T09:42:56;11.02;;;3.45;;
74375;SDS011;62812;55.188;61.302;2023-11-22T09:45:24;14.82;;;4.47;;
74375;SDS011;62812;55.188;61.302;2023-11-22T09:47:56;15.77;;;4.40;;
74375;SDS011;62812;55.188;61.302;2023-11-22T09:50:26;18.27;;;5.40;;
74375;SDS011;62812;55.188;61.302;2023-11-22T09:52:59;12.25;;;3.10;;
74375;SDS011;62812;55.188;61.302;2023-11-22T09:55:29;13.20;;;4.18;;
74375;SDS011;62812;55.188;61.302;2023-11-22T09:57:57;21.67;;;6.20;;
74375;SDS011;62812;55.188;61.302;2023-11-22T10:00:26;17.83;;;6.63;;
74375;SDS011;62812;55.188;61.302;2023-11-22T10:02:55;11.15;;;3.63;;
74375;SDS011;62812;55.188;61.302;2023-11-22T10:05:23;18.70;;;5.05;;
74375;SDS011;62812;55.188;61.302;2023-11-22T10:07:50;14.50;;;4.75;;
74375;SDS011;62812;55.188;61.302;2023-11-22T10:10:18;13.00;;;4.05;;
74375;SDS011;62812;55.188;61.302;2023-11-22T10:12:48;16.27;;;4.43;;
74375;SDS011;62812;55.188;61.302;2023-11-22T10:15:16;11.00;;;2.97;;
74375;SDS011;62812;55.188;61.302;2023-11-22T10:17:47;14.07;;;4.20;;
74375;SDS011;62812;55.188;61.302;2023-11-22T10:22:53;8.23;;;3.35;;
74375;SDS011;62812;55.188;61.302;2023-11-22T10:25:22;11.18;;;3.78;;
74375;SDS011;62812;55.188;61.302;2023-11-22T10:27:49;14.88;;;4.13;;
74375;SDS011;62812;55.188;61.302;2023-11-22T10:30:17;12.07;;;4.07;;
74375;SDS011;62812;55.188;61.302;2023-11-22T10:32:45;11.98;;;3.80;;
74375;SDS011;62812;55.188;61.302;2023-11-22T10:35:12;11.52;;;3.95;;
74375;SDS011;62812;55.188;61.302;2023-11-22T10:37:42;8.07;;;3.15;;
74375;SDS011;62812;55.188;61.302;2023-11-22T10:40:12;12.52;;;3.92;;
74375;SDS011;62812;55.188;61.302;2023-11-22T10:42:41;8.20;;;3.35;;
74375;SDS011;62812;55.188;61.302;2023-11-22T10:45:11;11.95;;;3.80;;
74375;SDS011;62812;55.188;61.302;2023-11-22T10:47:40;8.85;;;3.33;;
74375;SDS011;62812;55.188;61.302;2023-11-22T10:50:09;9.35;;;3.78;;
74375;SDS011;62812;55.188;61.302;2023-11-22T10:52:36;12.68;;;3.60;;
74375;SDS011;62812;55.188;61.302;2023-11-22T10:55:09;7.82;;;3.17;;
74375;SDS011;62812;55.188;61.302;2023-11-22T10:57:40;14.30;;;3.50;;
74375;SDS011;62812;55.188;61.302;2023-11-22T11:00:12;12.95;;;3.90;;
74375;SDS011;62812;55.188;61.302;2023-11-22T11:02:41;8.10;;;3.25;;
74375;SDS011;62812;55.188;61.302;2023-11-22T11:05:15;11.65;;;3.95;;
74375;SDS011;62812;55.188;61.302;2023-11-22T11:07:48;8.30;;;3.63;;
74375;SDS011;62812;55.188;61.302;2023-11-22T11:10:19;10.55;;;3.53;;
74375;SDS011;62812;55.188;61.302;2023-11-22T11:12:49;8.23;;;2.90;;
74375;SDS011;62812;55.188;61.302;2023-11-22T11:15:16;8.02;;;2.88;;
74375;SDS011;62812;55.188;61.302;2023-11-22T11:17:44;12.27;;;3.53;;
74375;SDS011;62812;55.188;61.302;2023-11-22T11:20:19;7.88;;;2.38;;
74375;SDS011;62812;55.188;61.302;2023-11-22T11:22:49;8.68;;;3.10;;
74375;SDS011;62812;55.188;61.302;2023-11-22T11:25:18;8.63;;;2.83;;
74375;SDS011;62812;55.188;61.302;2023-11-22T11:27:55;8.73;;;3.15;;
74375;SDS011;62812;55.188;61.302;2023-11-22T11:30:40;7.15;;;2.63;;
74375;SDS011;62812;55.188;61.302;2023-11-22T11:33:12;8.40;;;3.10;;
74375;SDS011;62812;55.188;61.302;2023-11-22T11:35:43;8.85;;;2.97;;
74375;SDS011;62812;55.188;61.302;2023-11-22T11:38:12;10.50;;;2.88;;
74375;SDS011;62812;55.188;61.302;2023-11-22T11:40:42;8.82;;;2.65;;
74375;SDS011;62812;55.188;61.302;2023-11-22T11:43:09;8.13;;;2.67;;
74375;SDS011;62812;55.188;61.302;2023-11-22T11:45:37;7.45;;;2.40;;
74375;SDS011;62812;55.188;61.302;2023-11-22T11:48:13;7.30;;;2.47;;
74375;SDS011;62812;55.188;61.302;2023-11-22T11:50:40;9.57;;;2.90;;
74375;SDS011;62812;55.188;61.302;2023-11-22T11:53:07;12.88;;;2.50;;
74375;SDS011;62812;55.188;61.302;2023-11-22T11:55:34;12.45;;;2.35;;
74375;SDS011;62812;55.188;61.302;2023-11-22T11:58:05;11.35;;;3.25;;
74375;SDS011;62812;55.188;61.302;2023-11-22T12:00:37;8.85;;;2.90;;
74375;SDS011;62812;55.188;61.302;2023-11-22T12:03:07;8.55;;;3.53;;
74375;SDS011;62812;55.188;61.302;2023-11-22T12:05:40;6.55;;;2.58;;
74375;SDS011;62812;55.188;61.302;2023-11-22T12:08:07;5.82;;;1.58;;
74375;SDS011;62812;55.188;61.302;2023-11-22T12:10:34;8.50;;;3.15;;
74375;SDS011;62812;55.188;61.302;2023-11-22T12:13:02;12.02;;;3.55;;
74375;SDS011;62812;55.188;61.302;2023-11-22T12:15:34;8.65;;;2.78;;
74375;SDS011;62812;55.188;61.302;2023-11-22T12:18:03;11.85;;;2.33;;
74375;SDS011;62812;55.188;61.302;2023-11-22T12:20:30;10.02;;;2.70;;
74375;SDS011;62812;55.188;61.302;2023-11-22T12:22:58;8.25;;;2.92;;
74375;SDS011;62812;55.188;61.302;2023-11-22T12:25:26;12.40;;;2.58;;
74375;SDS011;62812;55.188;61.302;2023-11-22T12:27:53;15.35;;;3.22;;
74375;SDS011;62812;55.188;61.302;2023-11-22T12:30:34;14.25;;;2.50;;
74375;SDS011;62812;55.188;61.302;2023-11-22T12:33:02;10.25;;;2.90;;
74375;SDS011;62812;55.188;61.302;2023-11-22T12:35:30;10.18;;;3.25;;
74375;SDS011;62812;55.188;61.302;2023-11-22T12:38:01;11.00;;;2.97;;
74375;SDS011;62812;55.188;61.302;2023-11-22T12:40:32;7.70;;;2.92;;
74375;SDS011;62812;55.188;61.302;2023-11-22T12:43:00;9.35;;;2.47;;
74375;SDS011;62812;55.188;61.302;2023-11-22T12:45:28;13.57;;;3.63;;
74375;SDS011;62812;55.188;61.302;2023-11-22T12:47:58;8.25;;;3.28;;
74375;SDS011;62812;55.188;61.302;2023-11-22T12:50:31;10.65;;;3.53;;
74375;SDS011;62812;55.188;61.302;2023-11-22T12:53:10;12.50;;;3.78;;
74375;SDS011;62812;55.188;61.302;2023-11-22T12:55:37;11.68;;;3.83;;
74375;SDS011;62812;55.188;61.302;2023-11-22T12:58:20;14.27;;;4.57;;
74375;SDS011;62812;55.188;61.302;2023-11-22T13:00:51;15.10;;;4.80;;
74375;SDS011;62812;55.188;61.302;2023-11-22T13:03:27;11.75;;;4.50;;
74375;SDS011;62812;55.188;61.302;2023-11-22T13:05:55;10.70;;;3.15;;
74375;SDS011;62812;55.188;61.302;2023-11-22T13:08:22;8.32;;;2.72;;
74375;SDS011;62812;55.188;61.302;2023-11-22T13:10:54;9.43;;;2.88;;
74375;SDS011;62812;55.188;61.302;2023-11-22T13:13:24;10.65;;;3.33;;
74375;SDS011;62812;55.188;61.302;2023-11-22T13:15:52;13.07;;;3.35;;
74375;SDS011;62812;55.188;61.302;2023-11-22T13:18:19;10.63;;;2.97;;
74375;SDS011;62812;55.188;61.302;2023-11-22T13:20:48;9.50;;;3.70;;
74375;SDS011;62812;55.188;61.302;2023-11-22T13:23:16;14.05;;;2.97;;
74375;SDS011;62812;55.188;61.302;2023-11-22T13:25:45;11.48;;;4.15;;
74375;SDS011;62812;55.188;61.302;2023-11-22T13:28:12;9.52;;;3.05;;
74375;SDS011;62812;55.188;61.302;2023-11-22T13:30:39;9.38;;;2.65;;
74375;SDS011;62812;55.188;61.302;2023-11-22T13:33:05;8.95;;;2.42;;
74375;SDS011;62812;55.188;61.302;2023-11-22T13:35:33;14.95;;;3.92;;
74375;SDS011;62812;55.188;61.302;2023-11-22T13:38:05;8.80;;;3.20;;
74375;SDS011;62812;55.188;61.302;2023-11-22T13:40:36;13.63;;;4.70;;
74375;SDS011;62812;55.188;61.302;2023-11-22T13:43:06;16.90;;;3.58;;
74375;SDS011;62812;55.188;61.302;2023-11-22T13:45:35;12.07;;;4.57;;
74375;SDS011;62812;55.188;61.302;2023-11-22T13:48:04;13.88;;;3.75;;
74375;SDS011;62812;55.188;61.302;2023-11-22T13:50:35;11.55;;;3.53;;
74375;SDS011;62812;55.188;61.302;2023-11-22T13:53:06;14.23;;;3.97;;
74375;SDS011;62812;55.188;61.302;2023-11-22T13:55:38;9.70;;;3.88;;
74375;SDS011;62812;55.188;61.302;2023-11-22T13:58:04;7.07;;;2.35;;
74375;SDS011;62812;55.188;61.302;2023-11-22T14:00:31;11.32;;;3.08;;
74375;SDS011;62812;55.188;61.302;2023-11-22T14:02:59;16.85;;;4.35;;
74375;SDS011;62812;55.188;61.302;2023-11-22T14:05:33;10.32;;;3.40;;
74375;SDS011;62812;55.188;61.302;2023-11-22T14:08:07;10.43;;;3.50;;
74375;SDS011;62812;55.188;61.302;2023-11-22T14:10:34;8.45;;;2.75;;
74375;SDS011;62812;55.188;61.302;2023-11-22T14:13:01;8.45;;;3.05;;
74375;SDS011;62812;55.188;61.302;2023-11-22T14:15:29;8.05;;;2.90;;
74375;SDS011;62812;55.188;61.302;2023-11-22T14:17:57;9.45;;;2.90;;
74375;SDS011;62812;55.188;61.302;2023-11-22T14:20:26;9.75;;;2.45;;
74375;SDS011;62812;55.188;61.302;2023-11-22T14:22:55;8.73;;;3.25;;
74375;SDS011;62812;55.188;61.302;2023-11-22T14:25:23;13.57;;;3.17;;
74375;SDS011;62812;55.188;61.302;2023-11-22T14:27:51;9.07;;;2.63;;
74375;SDS011;62812;55.188;61.302;2023-11-22T14:30:20;13.50;;;4.18;;
74375;SDS011;62812;55.188;61.302;2023-11-22T14:32:47;8.45;;;2.33;;
74375;SDS011;62812;55.188;61.302;2023-11-22T14:35:17;11.98;;;3.05;;
74375;SDS011;62812;55.188;61.302;2023-11-22T14:45:19;10.82;;;2.97;;
74375;SDS011;62812;55.188;61.302;2023-11-22T14:47:46;13.60;;;2.53;;
74375;SDS011;62812;55.188;61.302;2023-11-22T14:50:14;7.45;;;2.78;;
74375;SDS011;62812;55.188;61.302;2023-11-22T14:52:41;12.10;;;3.55;;